sensor_id;sensor_type;location;lat;lon;timestamp;P1;durP1;ratioP1;P2;durP2;ratioP2
23370;SDS011;11858;51.056;3.712;2023-01-10T00:00:32;24.88;;;19.80;;
23370;SDS011;11858;51.056;3.712;2023-01-10T00:03:05;26.80;;;19.33;;
23370;SDS011;11858;51.056;3.712;2023-01-10T00:05:32;31.33;;;20.15;;
23370;SDS011;11858;51.056;3.712;2023-01-10T00:07:59;30.42;;;19.92;;
23370;SDS011;11858;51.056;3.712;2023-01-10T00:10:27;33.85;;;20.00;;
23370;SDS011;11858;51.056;3.712;2023-01-10T00:12:53;26.25;;;18.92;;
23370;SDS011;11858;51.056;3.712;2023-01-10T00:15:37;31.17;;;20.10;;
23370;SDS011;11858;51.056;3.712;2023-01-10T00:18:03;28.27;;;19.23;;
23370;SDS011;11858;51.056;3.712;2023-01-10T00:20:29;27.80;;;19.67;;
23370;SDS011;11858;51.056;3.712;2023-01-10T00:22:55;25.10;;;19.50;;
23370;SDS011;11858;51.056;3.712;2023-01-10T00:25:22;29.17;;;19.75;;
23370;SDS011;11858;51.056;3.712;2023-01-10T00:27:48;27.23;;;18.58;;
23370;SDS011;11858;51.056;3.712;2023-01-10T00:30:53;35.33;;;19.75;;
23370;SDS011;11858;51.056;3.712;2023-01-10T00:33:23;25.55;;;19.55;;
23370;SDS011;11858;51.056;3.712;2023-01-10T00:35:49;29.20;;;20.17;;
23370;SDS011;11858;51.056;3.712;2023-01-10T00:38:15;30.73;;;19.88;;
23370;SDS011;11858;51.056;3.712;2023-01-10T00:40:41;31.42;;;19.88;;
23370;SDS011;11858;51.056;3.712;2023-01-10T00:43:07;34.45;;;20.70;;
23370;SDS011;11858;51.056;3.712;2023-01-10T00:45:52;31.92;;;19.73;;
23370;SDS011;11858;51.056;3.712;2023-01-10T00:48:18;31.92;;;20.45;;
23370;SDS011;11858;51.056;3.712;2023-01-10T00:50:44;29.73;;;19.98;;
23370;SDS011;11858;51.056;3.712;2023-01-10T00:53:10;36.63;;;20.10;;
23370;SDS011;11858;51.056;3.712;2023-01-10T00:55:36;31.63;;;20.20;;
23370;SDS011;11858;51.056;3.712;2023-01-10T00:58:02;35.30;;;20.23;;
23370;SDS011;11858;51.056;3.712;2023-01-10T01:00:28;28.27;;;19.08;;
23370;SDS011;11858;51.056;3.712;2023-01-10T01:02:54;25.17;;;19.25;;
23370;SDS011;11858;51.056;3.712;2023-01-10T01:05:20;34.90;;;20.70;;
23370;SDS011;11858;51.056;3.712;2023-01-10T01:07:50;33.50;;;19.38;;
23370;SDS011;11858;51.056;3.712;2023-01-10T01:10:16;33.35;;;20.08;;
23370;SDS011;11858;51.056;3.712;2023-01-10T01:12:52;30.50;;;19.30;;
23370;SDS011;11858;51.056;3.712;2023-01-10T01:15:19;38.20;;;19.58;;
23370;SDS011;11858;51.056;3.712;2023-01-10T01:17:46;37.45;;;19.83;;
23370;SDS011;11858;51.056;3.712;2023-01-10T01:20:12;38.50;;;19.58;;
23370;SDS011;11858;51.056;3.712;2023-01-10T01:22:39;45.40;;;20.55;;
23370;SDS011;11858;51.056;3.712;2023-01-10T01:25:05;35.45;;;19.75;;
23370;SDS011;11858;51.056;3.712;2023-01-10T01:27:31;33.20;;;19.05;;
23370;SDS011;11858;51.056;3.712;2023-01-10T01:29:57;36.33;;;19.38;;
23370;SDS011;11858;51.056;3.712;2023-01-10T01:32:22;31.92;;;19.77;;
23370;SDS011;11858;51.056;3.712;2023-01-10T01:34:48;32.70;;;19.88;;
23370;SDS011;11858;51.056;3.712;2023-01-10T01:37:14;33.45;;;19.60;;
23370;SDS011;11858;51.056;3.712;2023-01-10T01:39:43;38.72;;;19.77;;
23370;SDS011;11858;51.056;3.712;2023-01-10T01:42:24;35.20;;;18.38;;
23370;SDS011;11858;51.056;3.712;2023-01-10T01:45:05;41.60;;;19.20;;
23370;SDS011;11858;51.056;3.712;2023-01-10T01:47:48;48.17;;;19.08;;
23370;SDS011;11858;51.056;3.712;2023-01-10T01:50:18;35.88;;;19.15;;
23370;SDS011;11858;51.056;3.712;2023-01-10T01:52:49;41.15;;;19.30;;
23370;SDS011;11858;51.056;3.712;2023-01-10T01:57:46;34.83;;;18.27;;
23370;SDS011;11858;51.056;3.712;2023-01-10T02:00:13;38.10;;;19.25;;
23370;SDS011;11858;51.056;3.712;2023-01-10T02:02:42;47.25;;;19.00;;
23370;SDS011;11858;51.056;3.712;2023-01-10T02:05:13;44.53;;;19.08;;
23370;SDS011;11858;51.056;3.712;2023-01-10T02:07:43;36.15;;;18.35;;
23370;SDS011;11858;51.056;3.712;2023-01-10T02:10:13;40.92;;;18.45;;
23370;SDS011;11858;51.056;3.712;2023-01-10T02:12:43;41.20;;;18.85;;
23370;SDS011;11858;51.056;3.712;2023-01-10T02:15:11;34.50;;;18.98;;
23370;SDS011;11858;51.056;3.712;2023-01-10T02:17:39;36.78;;;19.60;;
23370;SDS011;11858;51.056;3.712;2023-01-10T02:20:07;45.33;;;19.92;;
23370;SDS011;11858;51.056;3.712;2023-01-10T02:33:48;53.03;;;20.63;;
23370;SDS011;11858;51.056;3.712;2023-01-10T02:47:21;40.50;;;19.77;;
23370;SDS011;11858;51.056;3.712;2023-01-10T02:49:47;39.53;;;20.02;;
23370;SDS011;11858;51.056;3.712;2023-01-10T02:52:22;44.83;;;20.25;;
23370;SDS011;11858;51.056;3.712;2023-01-10T02:54:52;39.92;;;20.35;;
23370;SDS011;11858;51.056;3.712;2023-01-10T03:00:40;40.70;;;19.58;;
23370;SDS011;11858;51.056;3.712;2023-01-10T03:03:17;46.65;;;19.95;;
23370;SDS011;11858;51.056;3.712;2023-01-10T03:12:04;37.50;;;20.33;;
23370;SDS011;11858;51.056;3.712;2023-01-10T03:14:39;44.72;;;19.33;;
23370;SDS011;11858;51.056;3.712;2023-01-10T03:17:06;41.28;;;18.67;;
23370;SDS011;11858;51.056;3.712;2023-01-10T03:19:37;39.00;;;18.77;;
23370;SDS011;11858;51.056;3.712;2023-01-10T03:22:10;44.97;;;19.77;;
23370;SDS011;11858;51.056;3.712;2023-01-10T03:24:47;43.38;;;19.35;;
23370;SDS011;11858;51.056;3.712;2023-01-10T03:32:38;49.88;;;19.65;;
23370;SDS011;11858;51.056;3.712;2023-01-10T03:35:05;35.20;;;18.88;;
23370;SDS011;11858;51.056;3.712;2023-01-10T03:40:22;49.15;;;19.83;;
23370;SDS011;11858;51.056;3.712;2023-01-10T03:43:17;46.08;;;19.15;;
23370;SDS011;11858;51.056;3.712;2023-01-10T03:46:15;36.75;;;19.15;;
23370;SDS011;11858;51.056;3.712;2023-01-10T03:48:47;42.40;;;18.67;;
23370;SDS011;11858;51.056;3.712;2023-01-10T03:51:14;35.42;;;18.73;;
23370;SDS011;11858;51.056;3.712;2023-01-10T03:53:41;41.80;;;18.40;;
23370;SDS011;11858;51.056;3.712;2023-01-10T03:56:11;52.63;;;19.55;;
23370;SDS011;11858;51.056;3.712;2023-01-10T03:58:38;52.72;;;19.05;;
23370;SDS011;11858;51.056;3.712;2023-01-10T04:01:05;39.42;;;18.45;;
23370;SDS011;11858;51.056;3.712;2023-01-10T04:03:30;49.08;;;28.98;;
23370;SDS011;11858;51.056;3.712;2023-01-10T04:05:56;50.72;;;27.25;;
23370;SDS011;11858;51.056;3.712;2023-01-10T04:08:22;51.30;;;27.27;;
23370;SDS011;11858;51.056;3.712;2023-01-10T04:10:48;50.63;;;27.92;;
23370;SDS011;11858;51.056;3.712;2023-01-10T04:13:14;42.97;;;27.45;;
23370;SDS011;11858;51.056;3.712;2023-01-10T04:15:39;51.53;;;26.90;;
23370;SDS011;11858;51.056;3.712;2023-01-10T04:18:05;43.60;;;27.17;;
23370;SDS011;11858;51.056;3.712;2023-01-10T04:20:31;44.88;;;26.70;;
23370;SDS011;11858;51.056;3.712;2023-01-10T04:22:59;52.15;;;27.38;;
23370;SDS011;11858;51.056;3.712;2023-01-10T04:25:25;55.83;;;27.75;;
23370;SDS011;11858;51.056;3.712;2023-01-10T04:27:51;56.03;;;27.33;;
23370;SDS011;11858;51.056;3.712;2023-01-10T04:30:17;40.90;;;26.63;;
23370;SDS011;11858;51.056;3.712;2023-01-10T04:32:44;52.95;;;25.33;;
23370;SDS011;11858;51.056;3.712;2023-01-10T04:35:10;41.63;;;25.58;;
23370;SDS011;11858;51.056;3.712;2023-01-10T04:37:35;50.53;;;25.45;;
23370;SDS011;11858;51.056;3.712;2023-01-10T04:40:02;44.92;;;25.13;;
23370;SDS011;11858;51.056;3.712;2023-01-10T04:42:28;45.38;;;24.63;;
23370;SDS011;11858;51.056;3.712;2023-01-10T04:44:54;49.40;;;26.95;;
23370;SDS011;11858;51.056;3.712;2023-01-10T04:47:19;48.25;;;25.50;;
23370;SDS011;11858;51.056;3.712;2023-01-10T04:49:47;54.08;;;24.17;;
23370;SDS011;11858;51.056;3.712;2023-01-10T04:52:12;58.63;;;24.75;;
23370;SDS011;11858;51.056;3.712;2023-01-10T04:54:38;49.33;;;25.00;;
23370;SDS011;11858;51.056;3.712;2023-01-10T04:57:04;45.65;;;24.27;;
23370;SDS011;11858;51.056;3.712;2023-01-10T04:59:30;54.65;;;25.73;;
23370;SDS011;11858;51.056;3.712;2023-01-10T05:01:56;54.92;;;24.73;;
23370;SDS011;11858;51.056;3.712;2023-01-10T05:04:23;48.85;;;24.67;;
23370;SDS011;11858;51.056;3.712;2023-01-10T05:06:49;48.00;;;23.23;;
23370;SDS011;11858;51.056;3.712;2023-01-10T05:09:15;48.38;;;24.50;;
23370;SDS011;11858;51.056;3.712;2023-01-10T05:11:41;53.10;;;23.15;;
23370;SDS011;11858;51.056;3.712;2023-01-10T05:14:07;44.42;;;23.98;;
23370;SDS011;11858;51.056;3.712;2023-01-10T05:16:32;54.35;;;23.80;;
23370;SDS011;11858;51.056;3.712;2023-01-10T05:18:59;51.15;;;23.00;;
23370;SDS011;11858;51.056;3.712;2023-01-10T05:21:24;54.00;;;21.42;;
23370;SDS011;11858;51.056;3.712;2023-01-10T05:23:50;46.97;;;22.10;;
23370;SDS011;11858;51.056;3.712;2023-01-10T05:26:17;50.55;;;23.70;;
23370;SDS011;11858;51.056;3.712;2023-01-10T05:28:44;54.67;;;23.35;;
23370;SDS011;11858;51.056;3.712;2023-01-10T05:31:13;44.63;;;22.08;;
23370;SDS011;11858;51.056;3.712;2023-01-10T05:33:47;52.53;;;22.25;;
23370;SDS011;11858;51.056;3.712;2023-01-10T05:36:14;55.75;;;24.30;;
23370;SDS011;11858;51.056;3.712;2023-01-10T05:38:40;47.58;;;24.25;;
23370;SDS011;11858;51.056;3.712;2023-01-10T05:41:06;55.30;;;23.65;;
23370;SDS011;11858;51.056;3.712;2023-01-10T05:43:32;49.08;;;23.38;;
23370;SDS011;11858;51.056;3.712;2023-01-10T05:45:58;55.40;;;23.35;;
23370;SDS011;11858;51.056;3.712;2023-01-10T05:48:24;47.20;;;22.35;;
23370;SDS011;11858;51.056;3.712;2023-01-10T05:50:50;47.90;;;21.33;;
23370;SDS011;11858;51.056;3.712;2023-01-10T05:53:17;54.35;;;22.15;;
23370;SDS011;11858;51.056;3.712;2023-01-10T05:55:51;44.67;;;21.80;;
23370;SDS011;11858;51.056;3.712;2023-01-10T05:58:20;48.55;;;20.60;;
23370;SDS011;11858;51.056;3.712;2023-01-10T06:00:47;48.83;;;22.35;;
23370;SDS011;11858;51.056;3.712;2023-01-10T06:03:13;43.22;;;19.50;;
23370;SDS011;11858;51.056;3.712;2023-01-10T06:05:40;47.80;;;21.13;;
23370;SDS011;11858;51.056;3.712;2023-01-10T06:08:06;46.67;;;20.48;;
23370;SDS011;11858;51.056;3.712;2023-01-10T06:10:32;47.88;;;20.88;;
23370;SDS011;11858;51.056;3.712;2023-01-10T06:12:58;49.30;;;20.42;;
23370;SDS011;11858;51.056;3.712;2023-01-10T06:15:23;47.40;;;20.05;;
23370;SDS011;11858;51.056;3.712;2023-01-10T06:17:49;41.10;;;19.95;;
23370;SDS011;11858;51.056;3.712;2023-01-10T06:20:15;44.22;;;20.10;;
23370;SDS011;11858;51.056;3.712;2023-01-10T06:22:41;67.45;;;21.52;;
23370;SDS011;11858;51.056;3.712;2023-01-10T06:25:08;50.00;;;20.60;;
23370;SDS011;11858;51.056;3.712;2023-01-10T06:27:35;46.58;;;19.25;;
23370;SDS011;11858;51.056;3.712;2023-01-10T06:30:06;44.85;;;20.55;;
23370;SDS011;11858;51.056;3.712;2023-01-10T06:32:33;43.40;;;20.42;;
23370;SDS011;11858;51.056;3.712;2023-01-10T06:34:59;47.78;;;20.75;;
23370;SDS011;11858;51.056;3.712;2023-01-10T06:37:25;46.25;;;20.63;;
23370;SDS011;11858;51.056;3.712;2023-01-10T06:39:51;40.42;;;19.90;;
23370;SDS011;11858;51.056;3.712;2023-01-10T06:42:17;47.38;;;20.42;;
23370;SDS011;11858;51.056;3.712;2023-01-10T06:44:42;47.28;;;20.17;;
23370;SDS011;11858;51.056;3.712;2023-01-10T06:47:08;47.13;;;16.10;;
23370;SDS011;11858;51.056;3.712;2023-01-10T06:49:34;46.05;;;17.30;;
23370;SDS011;11858;51.056;3.712;2023-01-10T06:51:59;42.75;;;15.02;;
23370;SDS011;11858;51.056;3.712;2023-01-10T06:54:25;35.47;;;15.05;;
23370;SDS011;11858;51.056;3.712;2023-01-10T06:56:51;46.20;;;16.42;;
23370;SDS011;11858;51.056;3.712;2023-01-10T06:59:17;52.78;;;16.90;;
23370;SDS011;11858;51.056;3.712;2023-01-10T07:01:42;45.03;;;15.75;;
23370;SDS011;11858;51.056;3.712;2023-01-10T07:04:08;37.15;;;15.75;;
23370;SDS011;11858;51.056;3.712;2023-01-10T07:06:37;44.45;;;15.93;;
23370;SDS011;11858;51.056;3.712;2023-01-10T07:09:04;40.38;;;15.82;;
23370;SDS011;11858;51.056;3.712;2023-01-10T07:11:30;36.13;;;15.68;;
23370;SDS011;11858;51.056;3.712;2023-01-10T07:13:57;38.83;;;16.15;;
23370;SDS011;11858;51.056;3.712;2023-01-10T07:16:22;40.90;;;15.43;;
23370;SDS011;11858;51.056;3.712;2023-01-10T07:18:48;40.05;;;16.08;;
23370;SDS011;11858;51.056;3.712;2023-01-10T07:21:14;47.00;;;15.15;;
23370;SDS011;11858;51.056;3.712;2023-01-10T07:23:43;43.88;;;15.80;;
23370;SDS011;11858;51.056;3.712;2023-01-10T07:26:18;39.75;;;16.15;;
23370;SDS011;11858;51.056;3.712;2023-01-10T07:28:48;39.55;;;15.82;;
23370;SDS011;11858;51.056;3.712;2023-01-10T07:31:18;44.22;;;15.80;;
23370;SDS011;11858;51.056;3.712;2023-01-10T07:33:44;50.42;;;16.23;;
23370;SDS011;11858;51.056;3.712;2023-01-10T07:36:10;39.35;;;15.50;;
23370;SDS011;11858;51.056;3.712;2023-01-10T07:38:37;52.95;;;16.85;;
23370;SDS011;11858;51.056;3.712;2023-01-10T07:41:03;43.70;;;16.13;;
23370;SDS011;11858;51.056;3.712;2023-01-10T07:43:30;35.42;;;15.52;;
23370;SDS011;11858;51.056;3.712;2023-01-10T07:46:00;51.50;;;15.98;;
23370;SDS011;11858;51.056;3.712;2023-01-10T07:48:26;52.35;;;17.05;;
23370;SDS011;11858;51.056;3.712;2023-01-10T07:50:56;42.83;;;15.75;;
23370;SDS011;11858;51.056;3.712;2023-01-10T07:53:23;43.03;;;16.15;;
23370;SDS011;11858;51.056;3.712;2023-01-10T07:55:49;37.38;;;16.25;;
23370;SDS011;11858;51.056;3.712;2023-01-10T07:58:14;45.47;;;17.17;;
23370;SDS011;11858;51.056;3.712;2023-01-10T08:00:40;38.30;;;15.32;;
23370;SDS011;11858;51.056;3.712;2023-01-10T08:03:06;46.72;;;16.55;;
23370;SDS011;11858;51.056;3.712;2023-01-10T08:05:35;53.42;;;16.67;;
23370;SDS011;11858;51.056;3.712;2023-01-10T08:08:04;40.42;;;15.95;;
23370;SDS011;11858;51.056;3.712;2023-01-10T08:10:31;40.58;;;15.80;;
23370;SDS011;11858;51.056;3.712;2023-01-10T08:12:58;39.10;;;16.08;;
23370;SDS011;11858;51.056;3.712;2023-01-10T08:15:24;39.35;;;15.73;;
23370;SDS011;11858;51.056;3.712;2023-01-10T08:17:50;39.42;;;15.30;;
23370;SDS011;11858;51.056;3.712;2023-01-10T08:20:16;37.38;;;16.27;;
23370;SDS011;11858;51.056;3.712;2023-01-10T08:22:41;35.63;;;15.40;;
23370;SDS011;11858;51.056;3.712;2023-01-10T08:25:07;36.60;;;16.00;;
23370;SDS011;11858;51.056;3.712;2023-01-10T08:27:33;36.65;;;15.48;;
23370;SDS011;11858;51.056;3.712;2023-01-10T08:29:59;39.13;;;15.10;;
23370;SDS011;11858;51.056;3.712;2023-01-10T08:32:25;36.10;;;15.07;;
23370;SDS011;11858;51.056;3.712;2023-01-10T08:34:51;40.90;;;15.88;;
23370;SDS011;11858;51.056;3.712;2023-01-10T08:37:16;32.65;;;15.32;;
23370;SDS011;11858;51.056;3.712;2023-01-10T08:39:42;33.65;;;15.73;;
23370;SDS011;11858;51.056;3.712;2023-01-10T08:42:08;36.05;;;15.60;;
23370;SDS011;11858;51.056;3.712;2023-01-10T08:44:34;38.85;;;15.82;;
23370;SDS011;11858;51.056;3.712;2023-01-10T08:47:00;36.05;;;16.30;;
23370;SDS011;11858;51.056;3.712;2023-01-10T08:49:26;38.70;;;15.32;;
23370;SDS011;11858;51.056;3.712;2023-01-10T08:51:52;31.63;;;14.57;;
23370;SDS011;11858;51.056;3.712;2023-01-10T08:54:18;39.88;;;16.40;;
23370;SDS011;11858;51.056;3.712;2023-01-10T08:56:43;44.85;;;16.65;;
23370;SDS011;11858;51.056;3.712;2023-01-10T08:59:09;33.92;;;16.08;;
23370;SDS011;11858;51.056;3.712;2023-01-10T09:01:35;37.85;;;15.63;;
23370;SDS011;11858;51.056;3.712;2023-01-10T09:04:00;45.50;;;16.77;;
23370;SDS011;11858;51.056;3.712;2023-01-10T09:06:27;39.58;;;17.17;;
23370;SDS011;11858;51.056;3.712;2023-01-10T09:08:52;39.45;;;16.00;;
23370;SDS011;11858;51.056;3.712;2023-01-10T09:11:18;43.33;;;15.60;;
23370;SDS011;11858;51.056;3.712;2023-01-10T09:13:47;27.83;;;14.80;;
23370;SDS011;11858;51.056;3.712;2023-01-10T09:16:14;29.23;;;15.65;;
23370;SDS011;11858;51.056;3.712;2023-01-10T09:18:40;34.40;;;17.05;;
23370;SDS011;11858;51.056;3.712;2023-01-10T09:21:06;32.22;;;16.40;;
23370;SDS011;11858;51.056;3.712;2023-01-10T09:23:32;36.03;;;17.20;;
23370;SDS011;11858;51.056;3.712;2023-01-10T09:25:58;38.35;;;17.33;;
23370;SDS011;11858;51.056;3.712;2023-01-10T09:28:25;41.47;;;16.77;;
23370;SDS011;11858;51.056;3.712;2023-01-10T09:30:51;40.33;;;17.33;;
23370;SDS011;11858;51.056;3.712;2023-01-10T09:33:17;42.25;;;18.05;;
23370;SDS011;11858;51.056;3.712;2023-01-10T09:35:43;28.20;;;16.50;;
23370;SDS011;11858;51.056;3.712;2023-01-10T09:38:10;37.47;;;17.38;;
23370;SDS011;11858;51.056;3.712;2023-01-10T09:40:57;36.90;;;18.60;;
23370;SDS011;11858;51.056;3.712;2023-01-10T09:43:33;38.25;;;18.13;;
23370;SDS011;11858;51.056;3.712;2023-01-10T09:46:38;40.25;;;17.27;;
23370;SDS011;11858;51.056;3.712;2023-01-10T09:49:30;37.22;;;18.40;;
23370;SDS011;11858;51.056;3.712;2023-01-10T09:52:02;39.83;;;18.40;;
23370;SDS011;11858;51.056;3.712;2023-01-10T09:54:37;45.22;;;18.40;;
23370;SDS011;11858;51.056;3.712;2023-01-10T09:57:07;42.92;;;19.23;;
23370;SDS011;11858;51.056;3.712;2023-01-10T09:59:40;49.38;;;19.08;;
23370;SDS011;11858;51.056;3.712;2023-01-10T10:04:45;37.35;;;18.95;;
23370;SDS011;11858;51.056;3.712;2023-01-10T10:07:26;34.92;;;18.27;;
23370;SDS011;11858;51.056;3.712;2023-01-10T10:09:51;35.08;;;18.30;;
23370;SDS011;11858;51.056;3.712;2023-01-10T10:15:14;38.33;;;20.20;;
23370;SDS011;11858;51.056;3.712;2023-01-10T10:17:51;38.47;;;19.92;;
23370;SDS011;11858;51.056;3.712;2023-01-10T10:21:21;38.30;;;18.73;;
23370;SDS011;11858;51.056;3.712;2023-01-10T10:32:53;36.40;;;19.83;;
23370;SDS011;11858;51.056;3.712;2023-01-10T10:35:59;28.63;;;19.65;;
23370;SDS011;11858;51.056;3.712;2023-01-10T10:38:29;36.85;;;21.20;;
23370;SDS011;11858;51.056;3.712;2023-01-10T10:40:59;40.72;;;19.38;;
23370;SDS011;11858;51.056;3.712;2023-01-10T10:43:31;40.47;;;19.63;;
23370;SDS011;11858;51.056;3.712;2023-01-10T10:46:04;29.85;;;18.50;;
23370;SDS011;11858;51.056;3.712;2023-01-10T10:53:53;38.45;;;19.73;;
23370;SDS011;11858;51.056;3.712;2023-01-10T10:56:21;35.80;;;19.67;;
23370;SDS011;11858;51.056;3.712;2023-01-10T10:58:50;35.85;;;19.23;;
23370;SDS011;11858;51.056;3.712;2023-01-10T11:01:19;32.55;;;19.52;;
23370;SDS011;11858;51.056;3.712;2023-01-10T11:06:41;38.40;;;19.17;;
23370;SDS011;11858;51.056;3.712;2023-01-10T11:09:12;28.17;;;19.02;;
23370;SDS011;11858;51.056;3.712;2023-01-10T11:11:44;37.75;;;20.20;;
23370;SDS011;11858;51.056;3.712;2023-01-10T11:14:11;42.80;;;18.80;;
23370;SDS011;11858;51.056;3.712;2023-01-10T11:16:41;37.78;;;19.17;;
23370;SDS011;11858;51.056;3.712;2023-01-10T11:21:40;35.70;;;19.10;;
23370;SDS011;11858;51.056;3.712;2023-01-10T11:27:14;32.60;;;19.08;;
23370;SDS011;11858;51.056;3.712;2023-01-10T11:29:43;36.45;;;19.88;;
23370;SDS011;11858;51.056;3.712;2023-01-10T11:32:21;38.38;;;20.38;;
23370;SDS011;11858;51.056;3.712;2023-01-10T11:34:52;34.17;;;18.10;;
23370;SDS011;11858;51.056;3.712;2023-01-10T11:37:24;38.10;;;17.35;;
23370;SDS011;11858;51.056;3.712;2023-01-10T11:42:47;38.63;;;14.80;;
23370;SDS011;11858;51.056;3.712;2023-01-10T11:50:41;40.78;;;14.05;;
23370;SDS011;11858;51.056;3.712;2023-01-10T11:53:25;33.22;;;13.88;;
23370;SDS011;11858;51.056;3.712;2023-01-10T11:56:00;32.13;;;12.65;;
23370;SDS011;11858;51.056;3.712;2023-01-10T11:58:30;35.22;;;11.80;;
23370;SDS011;11858;51.056;3.712;2023-01-10T12:00:58;39.95;;;12.70;;
23370;SDS011;11858;51.056;3.712;2023-01-10T12:03:25;29.40;;;11.02;;
23370;SDS011;11858;51.056;3.712;2023-01-10T12:06:13;35.67;;;12.98;;
23370;SDS011;11858;51.056;3.712;2023-01-10T12:08:41;30.63;;;8.48;;
23370;SDS011;11858;51.056;3.712;2023-01-10T12:13:48;31.95;;;9.93;;
23370;SDS011;11858;51.056;3.712;2023-01-10T12:18:47;29.67;;;10.32;;
23370;SDS011;11858;51.056;3.712;2023-01-10T12:21:15;26.90;;;9.75;;
23370;SDS011;11858;51.056;3.712;2023-01-10T12:23:48;31.38;;;9.77;;
23370;SDS011;11858;51.056;3.712;2023-01-10T12:26:15;33.67;;;9.80;;
23370;SDS011;11858;51.056;3.712;2023-01-10T12:28:43;28.95;;;8.80;;
23370;SDS011;11858;51.056;3.712;2023-01-10T12:31:16;35.78;;;8.88;;
23370;SDS011;11858;51.056;3.712;2023-01-10T12:33:45;25.88;;;9.32;;
23370;SDS011;11858;51.056;3.712;2023-01-10T12:39:04;35.03;;;8.55;;
23370;SDS011;11858;51.056;3.712;2023-01-10T12:44:41;30.10;;;6.65;;
23370;SDS011;11858;51.056;3.712;2023-01-10T12:50:04;27.27;;;6.07;;
23370;SDS011;11858;51.056;3.712;2023-01-10T12:55:33;18.40;;;6.25;;
23370;SDS011;11858;51.056;3.712;2023-01-10T12:58:21;26.33;;;6.82;;
23370;SDS011;11858;51.056;3.712;2023-01-10T13:00:52;26.55;;;7.20;;
23370;SDS011;11858;51.056;3.712;2023-01-10T13:03:23;29.85;;;6.78;;
23370;SDS011;11858;51.056;3.712;2023-01-10T13:08:22;25.73;;;7.22;;
23370;SDS011;11858;51.056;3.712;2023-01-10T13:10:51;27.60;;;7.63;;
23370;SDS011;11858;51.056;3.712;2023-01-10T13:18:44;25.75;;;6.57;;
23370;SDS011;11858;51.056;3.712;2023-01-10T13:21:45;26.05;;;7.45;;
23370;SDS011;11858;51.056;3.712;2023-01-10T13:26:55;28.23;;;5.72;;
23370;SDS011;11858;51.056;3.712;2023-01-10T13:29:24;21.15;;;6.18;;
23370;SDS011;11858;51.056;3.712;2023-01-10T13:31:59;22.65;;;6.22;;
23370;SDS011;11858;51.056;3.712;2023-01-10T13:34:33;22.85;;;6.50;;
23370;SDS011;11858;51.056;3.712;2023-01-10T13:37:43;19.05;;;5.30;;
23370;SDS011;11858;51.056;3.712;2023-01-10T13:39:58;16.88;;;5.32;;
23370;SDS011;11858;51.056;3.712;2023-01-10T13:42:27;30.92;;;5.60;;
23370;SDS011;11858;51.056;3.712;2023-01-10T13:45:14;21.33;;;5.22;;
23370;SDS011;11858;51.056;3.712;2023-01-10T13:52:58;17.73;;;4.85;;
23370;SDS011;11858;51.056;3.712;2023-01-10T14:01:22;1.05;;;1.05;;
23370;SDS011;11858;51.056;3.712;2023-01-10T14:04:24;0.90;;;0.90;;
23370;SDS011;11858;51.056;3.712;2023-01-10T14:06:56;0.80;;;0.80;;
23370;SDS011;11858;51.056;3.712;2023-01-10T14:11:56;1.80;;;1.70;;
23370;SDS011;11858;51.056;3.712;2023-01-10T14:14:34;0.88;;;0.88;;
23370;SDS011;11858;51.056;3.712;2023-01-10T14:19:35;13.57;;;3.92;;
23370;SDS011;11858;51.056;3.712;2023-01-10T14:22:04;14.38;;;3.53;;
23370;SDS011;11858;51.056;3.712;2023-01-10T14:24:40;14.52;;;3.83;;
23370;SDS011;11858;51.056;3.712;2023-01-10T14:27:12;14.18;;;4.25;;
23370;SDS011;11858;51.056;3.712;2023-01-10T14:29:46;11.27;;;3.55;;
23370;SDS011;11858;51.056;3.712;2023-01-10T14:34:55;11.32;;;3.60;;
23370;SDS011;11858;51.056;3.712;2023-01-10T14:37:26;13.85;;;3.90;;
23370;SDS011;11858;51.056;3.712;2023-01-10T14:39:56;8.88;;;3.50;;
23370;SDS011;11858;51.056;3.712;2023-01-10T14:42:23;10.43;;;3.30;;
23370;SDS011;11858;51.056;3.712;2023-01-10T14:44:58;8.13;;;3.50;;
23370;SDS011;11858;51.056;3.712;2023-01-10T14:47:31;10.32;;;3.90;;
23370;SDS011;11858;51.056;3.712;2023-01-10T14:49:58;9.85;;;3.85;;
23370;SDS011;11858;51.056;3.712;2023-01-10T14:52:29;6.72;;;4.13;;
23370;SDS011;11858;51.056;3.712;2023-01-10T14:57:34;10.75;;;4.55;;
23370;SDS011;11858;51.056;3.712;2023-01-10T15:00:00;10.98;;;6.03;;
23370;SDS011;11858;51.056;3.712;2023-01-10T15:02:29;24.90;;;14.60;;
23370;SDS011;11858;51.056;3.712;2023-01-10T15:05:05;10.23;;;4.55;;
23370;SDS011;11858;51.056;3.712;2023-01-10T15:07:36;7.85;;;4.07;;
23370;SDS011;11858;51.056;3.712;2023-01-10T15:10:14;6.93;;;4.05;;
23370;SDS011;11858;51.056;3.712;2023-01-10T15:12:42;13.45;;;6.63;;
23370;SDS011;11858;51.056;3.712;2023-01-10T15:15:12;11.52;;;4.85;;
23370;SDS011;11858;51.056;3.712;2023-01-10T15:17:42;9.02;;;4.40;;
23370;SDS011;11858;51.056;3.712;2023-01-10T15:20:17;14.88;;;4.45;;
23370;SDS011;11858;51.056;3.712;2023-01-10T15:22:46;12.02;;;8.27;;
23370;SDS011;11858;51.056;3.712;2023-01-10T15:27:48;9.07;;;4.45;;
23370;SDS011;11858;51.056;3.712;2023-01-10T15:30:22;8.07;;;4.78;;
23370;SDS011;11858;51.056;3.712;2023-01-10T15:32:54;7.13;;;5.00;;
23370;SDS011;11858;51.056;3.712;2023-01-10T15:35:25;10.63;;;4.97;;
23370;SDS011;11858;51.056;3.712;2023-01-10T15:37:56;7.63;;;4.10;;
23370;SDS011;11858;51.056;3.712;2023-01-10T15:40:28;8.93;;;5.25;;
23370;SDS011;11858;51.056;3.712;2023-01-10T15:43:09;7.53;;;6.28;;
23370;SDS011;11858;51.056;3.712;2023-01-10T15:45:42;8.50;;;6.13;;
23370;SDS011;11858;51.056;3.712;2023-01-10T15:51:25;20.23;;;6.75;;
23370;SDS011;11858;51.056;3.712;2023-01-10T15:54:25;10.43;;;6.82;;
23370;SDS011;11858;51.056;3.712;2023-01-10T15:56:58;11.80;;;7.50;;
23370;SDS011;11858;51.056;3.712;2023-01-10T16:02:21;13.88;;;9.43;;
23370;SDS011;11858;51.056;3.712;2023-01-10T16:05:17;15.52;;;8.57;;
23370;SDS011;11858;51.056;3.712;2023-01-10T16:07:44;12.23;;;8.07;;
23370;SDS011;11858;51.056;3.712;2023-01-10T16:10:21;12.93;;;8.60;;
23370;SDS011;11858;51.056;3.712;2023-01-10T16:12:51;12.05;;;9.18;;
23370;SDS011;11858;51.056;3.712;2023-01-10T16:15:36;15.23;;;10.27;;
23370;SDS011;11858;51.056;3.712;2023-01-10T16:18:06;10.00;;;8.57;;
23370;SDS011;11858;51.056;3.712;2023-01-10T16:20:39;16.38;;;10.75;;
23370;SDS011;11858;51.056;3.712;2023-01-10T16:23:12;18.35;;;10.82;;
23370;SDS011;11858;51.056;3.712;2023-01-10T16:25:42;17.77;;;10.88;;
23370;SDS011;11858;51.056;3.712;2023-01-10T16:28:17;15.90;;;10.88;;
23370;SDS011;11858;51.056;3.712;2023-01-10T16:30:45;15.73;;;11.95;;
23370;SDS011;11858;51.056;3.712;2023-01-10T16:33:16;21.20;;;12.93;;
23370;SDS011;11858;51.056;3.712;2023-01-10T16:35:47;16.42;;;13.30;;
23370;SDS011;11858;51.056;3.712;2023-01-10T16:38:14;17.40;;;13.23;;
23370;SDS011;11858;51.056;3.712;2023-01-10T16:40:51;20.17;;;12.45;;
23370;SDS011;11858;51.056;3.712;2023-01-10T16:43:21;16.38;;;12.48;;
23370;SDS011;11858;51.056;3.712;2023-01-10T16:46:02;16.30;;;12.15;;
23370;SDS011;11858;51.056;3.712;2023-01-10T16:48:29;16.60;;;12.43;;
23370;SDS011;11858;51.056;3.712;2023-01-10T16:51:12;20.60;;;15.75;;
23370;SDS011;11858;51.056;3.712;2023-01-10T16:53:42;19.63;;;15.05;;
23370;SDS011;11858;51.056;3.712;2023-01-10T16:56:12;19.13;;;15.23;;
23370;SDS011;11858;51.056;3.712;2023-01-10T16:58:42;20.95;;;13.25;;